Bowerstown, Indiana
Current Conditions -  °F | °C
As of 1:55 AM on Monday 24 Nov 2014 (Local Time) from KHHG Reporting Station
Light Rain Light Rain  
Wind Chill: 54°   Ceiling: 1100
Heat Index: 54°   Visibility: 10mi
Dew Point: 53°   Wind: 17mph
Humidity: 96%   Direction: 240°WSW
Pressure: 29.13"   Gusts: 29mph
Location:  40.9238°N, 85.5001°W
Report Text: KHHG 240655Z AUTO 24015G25KT 10SM -RA OVC011 12/12 A2913 RMK AO2 P0005 T01230117
Loading
Personal Weather Stations






























Interactive Weather Map New forecast layout! Learn more

10-Day Weather Forecast

Advertisements
Track Severe Weather on mobile